Time;durP1;ratioP1;P1;durP2;ratioP2;P2;SDS_P1;SDS_P2;PMS_P1;PMS_P2;Temp;Humidity;BMP_temperature;BMP_pressure;BME280_temperature;BME280_humidity;BME280_pressure;Samples;Min_cycle;Max_cycle;Signal;HPM_P1;HPM_P2
2022/06/16 00:01:00;;;;;;;5.72;3.88;;;15.50;99.90;;;;;;5089890;27;20134;-87
2022/06/16 00:06:52;;;;;;;7.30;4.32;;;15.50;99.90;;;;;;5079247;28;20074;-87
2022/06/16 00:09:42;;;;;;;9.75;5.15;;;15.50;99.90;;;;;;5104743;28;20061;-87
2022/06/16 00:15:34;;;;;;;7.10;4.32;;;15.40;99.90;;;;;;5078293;28;20147;-87
2022/06/16 00:18:13;;;;;;;7.10;4.70;;;15.30;99.90;;;;;;5089237;28;20511;-87
2022/06/16 00:20:55;;;;;;;9.43;4.68;;;15.30;99.90;;;;;;5087378;28;20040;-87
2022/06/16 00:23:33;;;;;;;9.73;4.75;;;15.20;99.90;;;;;;5066904;28;20040;-86
2022/06/16 00:26:20;;;;;;;7.50;4.63;;;15.20;99.90;;;;;;5081183;28;20032;-87
2022/06/16 00:29:06;;;;;;;9.50;4.57;;;15.20;99.90;;;;;;5100307;28;20459;-87
2022/06/16 00:31:58;;;;;;;9.07;4.70;;;15.10;99.90;;;;;;5088857;28;20488;-87
2022/06/16 00:34:57;;;;;;;9.88;5.32;;;15.10;99.90;;;;;;5100344;28;20059;-86
2022/06/16 00:44:22;;;;;;;9.23;4.45;;;15.10;99.90;;;;;;5103999;28;20495;-86
2022/06/16 00:46:56;;;;;;;7.68;4.50;;;15.00;99.90;;;;;;5083791;28;20036;-87
2022/06/16 00:49:44;;;;;;;7.15;4.30;;;15.00;99.90;;;;;;5081683;28;20459;-87
2022/06/16 00:59:13;;;;;;;8.50;4.53;;;15.00;99.90;;;;;;5073365;28;20094;-88
2022/06/16 01:05:08;;;;;;;7.00;4.00;;;14.90;99.90;;;;;;5101156;28;20070;-87
2022/06/16 01:07:44;;;;;;;6.13;4.30;;;14.90;99.90;;;;;;5081557;28;20044;-87
2022/06/16 01:10:37;;;;;;;6.15;4.28;;;14.90;99.90;;;;;;5077713;28;20539;-87
2022/06/16 01:13:44;;;;;;;9.57;4.95;;;14.90;99.90;;;;;;5075027;28;20039;-87
2022/06/16 01:16:31;;;;;;;6.38;4.30;;;14.80;99.90;;;;;;5102645;28;20048;-87
2022/06/16 01:22:48;;;;;;;6.53;4.50;;;14.80;99.90;;;;;;5102666;28;20182;-87
2022/06/16 01:26:07;;;;;;;6.40;4.15;;;14.70;99.90;;;;;;5082213;28;20076;-87
2022/06/16 01:29:00;;;;;;;10.15;4.50;;;14.70;99.90;;;;;;5008654;28;20055;-87
2022/06/16 01:32:02;;;;;;;7.70;4.50;;;14.70;99.90;;;;;;5012208;28;20716;-87
2022/06/16 01:34:47;;;;;;;6.78;4.00;;;14.70;99.90;;;;;;5090436;28;20043;-87
2022/06/16 01:37:50;;;;;;;7.63;4.18;;;14.60;99.90;;;;;;5084510;28;20123;-87
2022/06/16 01:41:09;;;;;;;11.10;4.45;;;14.60;99.90;;;;;;5102359;28;20091;-88
2022/06/16 01:44:19;;;;;;;6.28;4.18;;;14.50;99.90;;;;;;5057461;28;20055;-86
2022/06/16 01:46:54;;;;;;;6.88;4.07;;;14.50;99.90;;;;;;5052404;28;20052;-87
2022/06/16 01:49:27;;;;;;;6.55;4.78;;;14.50;99.90;;;;;;5054175;28;20053;-87
2022/06/16 01:52:31;;;;;;;5.35;4.30;;;14.40;99.90;;;;;;5054709;28;20078;-87
2022/06/16 01:59:13;;;;;;;7.63;4.70;;;14.40;99.90;;;;;;5008892;28;20041;-87
2022/06/16 02:02:11;;;;;;;8.80;4.40;;;14.40;99.90;;;;;;4984281;28;20478;-87
2022/06/16 02:05:09;;;;;;;10.45;4.82;;;14.40;99.90;;;;;;4992535;28;20026;-87
2022/06/16 02:08:18;;;;;;;8.48;4.57;;;14.30;99.90;;;;;;4982152;28;20387;-87
2022/06/16 02:14:40;;;;;;;6.82;4.55;;;14.30;99.90;;;;;;5058832;28;20047;-87
2022/06/16 02:21:10;;;;;;;8.25;4.75;;;14.20;99.90;;;;;;5100323;28;20055;-87
2022/06/16 02:23:47;;;;;;;9.50;4.32;;;14.20;99.90;;;;;;5073093;28;20356;-87
2022/06/16 02:30:00;;;;;;;7.00;4.40;;;14.20;99.90;;;;;;5102558;28;20043;-87
2022/06/16 02:33:23;;;;;;;6.97;4.50;;;14.10;99.90;;;;;;5046268;28;20043;-87
2022/06/16 02:36:41;;;;;;;7.10;4.55;;;14.10;99.90;;;;;;5046621;28;20048;-88
2022/06/16 02:50:04;;;;;;;7.57;5.32;;;13.90;99.90;;;;;;5118175;28;20036;-87
2022/06/16 02:52:52;;;;;;;9.85;5.97;;;13.80;99.90;;;;;;5100367;28;20097;-87
2022/06/16 02:59:18;;;;;;;7.90;6.05;;;13.80;99.90;;;;;;5112850;28;20035;-87
2022/06/16 03:02:05;;;;;;;9.20;6.45;;;13.70;99.90;;;;;;5101518;28;20786;-87
2022/06/16 03:05:13;;;;;;;9.57;6.45;;;13.60;99.90;;;;;;5102742;28;20031;-87
2022/06/16 03:07:57;;;;;;;10.90;7.75;;;13.60;99.90;;;;;;5098080;28;20063;-87
2022/06/16 03:13:26;;;;;;;11.82;7.57;;;13.50;99.90;;;;;;5099974;28;20083;-86
2022/06/16 03:16:18;;;;;;;8.63;6.93;;;13.40;99.90;;;;;;5086460;28;20425;-87
2022/06/16 03:19:07;;;;;;;11.02;7.05;;;13.40;99.90;;;;;;5083409;28;20448;-87
2022/06/16 03:21:56;;;;;;;10.80;7.18;;;13.30;99.90;;;;;;5090977;27;20505;-87
2022/06/16 03:24:33;;;;;;;8.88;6.65;;;13.30;99.90;;;;;;5088359;27;20402;-87
2022/06/16 03:33:04;;;;;;;9.50;7.00;;;13.20;99.90;;;;;;5105964;27;20465;-87
2022/06/16 03:38:47;;;;;;;7.90;6.32;;;13.10;99.90;;;;;;5108128;27;20057;-87
2022/06/16 03:41:21;;;;;;;6.78;6.05;;;13.10;99.90;;;;;;5088315;27;20130;-87
2022/06/16 03:47:04;;;;;;;8.75;6.68;;;13.10;99.90;;;;;;5104048;27;20047;-87
2022/06/16 03:49:40;;;;;;;14.20;7.00;;;13.10;99.90;;;;;;5087821;28;20051;-88
2022/06/16 03:52:24;;;;;;;9.52;5.82;;;13.00;99.90;;;;;;5087764;27;20039;-87
2022/06/16 03:55:16;;;;;;;8.07;6.00;;;13.10;99.90;;;;;;5085854;27;20071;-88
2022/06/16 03:57:58;;;;;;;7.85;6.10;;;13.00;99.90;;;;;;5091007;27;20047;-87
2022/06/16 04:01:01;;;;;;;9.02;6.68;;;13.00;99.90;;;;;;5088849;27;20417;-87
2022/06/16 04:04:01;;;;;;;8.73;6.63;;;13.00;99.90;;;;;;5071977;27;20475;-88
2022/06/16 04:06:47;;;;;;;9.65;6.50;;;13.00;99.90;;;;;;5089003;28;20046;-87
2022/06/16 04:21:29;;;;;;;10.63;5.55;;;13.20;99.90;;;;;;5102251;28;20097;-87
2022/06/16 04:24:33;;;;;;;8.80;5.85;;;13.30;99.90;;;;;;5090061;28;20043;-88
2022/06/16 04:27:04;;;;;;;6.13;5.07;;;13.30;99.90;;;;;;5101695;28;20078;-87
2022/06/16 04:29:44;;;;;;;6.97;5.15;;;13.30;99.90;;;;;;5083826;28;20123;-87
2022/06/16 04:32:30;;;;;;;6.47;5.20;;;13.30;99.90;;;;;;5088579;28;20052;-87
2022/06/16 04:35:05;;;;;;;7.63;5.55;;;13.40;99.90;;;;;;5085764;28;20036;-86
2022/06/16 04:37:34;;;;;;;12.02;6.80;;;13.40;99.90;;;;;;5073781;28;20034;-85
2022/06/16 04:40:02;;;;;;;11.40;5.65;;;13.40;99.90;;;;;;5105836;27;20130;-85
2022/06/16 04:45:45;;;;;;;11.73;6.38;;;13.50;99.90;;;;;;5109581;27;20134;-86
2022/06/16 04:48:27;;;;;;;9.10;6.00;;;13.50;99.90;;;;;;5090563;27;20054;-87
2022/06/16 04:50:53;;;;;;;7.93;5.55;;;13.50;99.90;;;;;;5107416;27;20050;-87
2022/06/16 04:53:54;;;;;;;9.13;5.85;;;13.50;99.90;;;;;;5093813;27;20444;-86
2022/06/16 05:02:16;;;;;;;9.27;6.00;;;13.60;99.90;;;;;;5106980;27;20046;-87
2022/06/16 05:05:06;;;;;;;8.57;5.90;;;13.50;99.90;;;;;;5076215;27;20099;-87
2022/06/16 05:07:31;;;;;;;10.75;6.05;;;13.50;99.90;;;;;;5093976;27;20040;-87
2022/06/16 05:10:38;;;;;;;9.00;5.85;;;13.40;99.90;;;;;;5091390;27;20050;-87
2022/06/16 05:13:18;;;;;;;8.45;5.50;;;13.50;99.90;;;;;;5090756;27;20399;-86
2022/06/16 05:16:28;;;;;;;10.48;5.68;;;13.50;99.90;;;;;;5105315;27;20452;-88
2022/06/16 05:19:15;;;;;;;8.43;6.05;;;13.60;99.90;;;;;;5106260;27;20039;-86
2022/06/16 05:22:23;;;;;;;10.40;6.13;;;13.60;99.90;;;;;;5084591;28;20438;-86
2022/06/16 05:25:01;;;;;;;7.50;5.88;;;13.70;99.90;;;;;;5084892;28;20033;-88
2022/06/16 05:27:47;;;;;;;9.95;6.38;;;13.70;99.90;;;;;;5088298;28;20460;-87
2022/06/16 05:30:18;;;;;;;10.68;6.57;;;13.70;99.90;;;;;;5087465;28;20043;-86
2022/06/16 05:32:49;;;;;;;13.43;7.03;;;13.70;99.90;;;;;;5084957;28;20044;-87
2022/06/16 05:35:20;;;;;;;10.05;6.20;;;13.70;99.90;;;;;;5090273;28;20047;-87
2022/06/16 05:38:12;;;;;;;9.10;6.13;;;13.70;99.90;;;;;;5104041;28;20145;-87
2022/06/16 05:40:59;;;;;;;8.45;6.30;;;13.70;99.90;;;;;;5099542;28;20058;-87
2022/06/16 05:43:44;;;;;;;9.77;6.03;;;13.80;99.90;;;;;;5101334;28;20047;-87
2022/06/16 05:46:17;;;;;;;;;;;13.90;99.90;;;;;;5088272;28;20050;-87
2022/06/16 05:49:07;;;;;;;9.75;6.18;;;13.90;99.90;;;;;;5104742;28;19916;-84
2022/06/16 05:52:03;;;;;;;9.63;6.15;;;14.00;99.90;;;;;;5102356;28;20048;-88
2022/06/16 05:55:02;;;;;;;10.88;5.85;;;14.10;99.90;;;;;;5090779;28;20074;-89
2022/06/16 05:57:50;;;;;;;10.05;5.68;;;14.20;99.90;;;;;;5091027;28;20051;-84
2022/06/16 06:01:01;;;;;;;8.40;5.05;;;14.10;99.90;;;;;;5102823;28;20143;-88
2022/06/16 06:03:26;;;;;;;;;;;14.20;99.90;;;;;;5057488;28;20057;-79
2022/06/16 06:05:52;;;;;;;7.70;4.70;;;14.30;99.90;;;;;;5049765;28;19981;-81
2022/06/16 06:17:18;;;;;;;9.95;5.20;;;14.70;99.90;;;;;;5065705;28;20475;-84
2022/06/16 06:20:28;;;;;;;7.22;4.90;;;14.80;99.90;;;;;;5033357;28;20045;-85
2022/06/16 06:22:54;;;;;;;6.72;4.30;;;14.90;99.90;;;;;;5052379;28;20568;-85
2022/06/16 06:25:44;;;;;;;7.63;4.40;;;15.00;99.90;;;;;;5030608;28;20443;-86
2022/06/16 06:28:25;;;;;;;9.27;4.43;;;15.20;99.90;;;;;;5041326;28;20520;-87
2022/06/16 06:30:54;;;;;;;7.63;4.40;;;15.40;99.90;;;;;;5050635;28;20452;-89
2022/06/16 06:36:52;;;;;;;8.45;4.18;;;15.70;99.90;;;;;;5063693;28;20072;-82
2022/06/16 06:39:46;;;;;;;4.55;3.15;;;16.00;99.90;;;;;;5100001;28;20403;-80
2022/06/16 06:42:48;;;;;;;4.20;3.08;;;16.20;99.90;;;;;;5082756;28;20128;-79
2022/06/16 06:45:49;;;;;;;7.70;3.35;;;16.40;99.90;;;;;;5094272;28;20055;-79
2022/06/16 06:48:34;;;;;;;5.32;2.63;;;16.60;99.90;;;;;;5084807;28;20391;-88
2022/06/16 06:51:09;;;;;;;6.03;2.60;;;16.80;99.90;;;;;;5085213;28;20039;-85
2022/06/16 06:54:09;;;;;;;4.47;2.75;;;17.00;99.90;;;;;;5081038;28;20036;-83
2022/06/16 06:56:41;;;;;;;6.95;2.75;;;17.20;99.90;;;;;;5082619;28;20062;-81
2022/06/16 06:59:28;;;;;;;3.42;1.95;;;17.30;99.90;;;;;;5102455;28;20078;-84
2022/06/16 07:02:01;;;;;;;4.43;2.22;;;17.40;99.90;;;;;;5084824;28;20040;-89
2022/06/16 07:08:03;;;;;;;4.72;1.60;;;17.70;99.90;;;;;;5099672;28;20043;-85
2022/06/16 07:11:25;;;;;;;2.20;1.20;;;17.90;99.90;;;;;;5086149;28;20039;-80
2022/06/16 07:14:07;;;;;;;3.58;1.48;;;18.00;99.90;;;;;;5097371;28;20389;-80
2022/06/16 07:20:17;;;;;;;4.63;1.58;;;18.30;99.90;;;;;;5094315;28;20114;-83
2022/06/16 07:22:53;;;;;;;;;;;18.50;99.90;;;;;;5086810;28;20054;-82
2022/06/16 07:25:24;;;;;;;4.15;1.50;;;18.60;99.90;;;;;;5085931;28;19924;-85
2022/06/16 07:28:00;;;;;;;4.60;1.60;;;18.70;99.90;;;;;;5086219;28;20043;-88
2022/06/16 07:30:42;;;;;;;2.70;1.00;;;18.80;99.90;;;;;;5103252;28;20141;-87
2022/06/16 07:33:15;;;;;;;2.53;1.10;;;19.00;99.90;;;;;;5084138;28;20046;-86
2022/06/16 07:35:59;;;;;;;3.25;1.52;;;19.10;99.90;;;;;;5087482;28;20097;-86
2022/06/16 07:38:28;;;;;;;2.25;1.10;;;19.40;99.90;;;;;;5080746;28;20040;-80
2022/06/16 07:44:47;;;;;;;1.90;0.80;;;20.00;99.90;;;;;;5086088;28;20039;-85
2022/06/16 07:48:05;;;;;;;2.03;0.98;;;20.50;99.90;;;;;;5083878;28;20372;-84
2022/06/16 07:50:46;;;;;;;4.53;1.60;;;20.80;99.30;;;;;;5083601;28;20045;-85
2022/06/16 07:53:23;;;;;;;4.20;1.65;;;21.10;98.80;;;;;;5100370;28;20051;-84
2022/06/16 07:56:21;;;;;;;3.90;1.38;;;21.00;96.40;;;;;;5100263;28;20118;-89
2022/06/16 08:02:31;;;;;;;14.65;10.32;;;21.00;96.60;;;;;;5112323;28;20036;-88
2022/06/16 08:05:11;;;;;;;7.80;4.65;;;21.20;96.90;;;;;;5081540;28;20041;-90
2022/06/16 08:08:01;;;;;;;5.30;2.35;;;21.50;95.90;;;;;;5081092;28;20063;-88
2022/06/16 08:10:41;;;;;;;6.20;1.80;;;21.90;95.00;;;;;;5104487;28;20044;-86
2022/06/16 08:13:08;;;;;;;3.90;1.70;;;22.20;95.70;;;;;;5083488;28;20032;-88
2022/06/16 08:18:37;;;;;;;2.90;1.25;;;22.30;94.20;;;;;;5047966;28;20040;-87
2022/06/16 08:25:30;;;;;;;2.42;1.30;;;22.20;93.60;;;;;;5035071;28;20048;-84
2022/06/16 08:28:14;;;;;;;;;;;22.20;92.80;;;;;;4999557;28;20525;-88
2022/06/16 08:31:20;;;;;;;4.28;1.88;;;22.20;90.00;;;;;;4985384;28;19925;-84
2022/06/16 08:34:11;;;;;;;3.40;1.60;;;22.10;91.00;;;;;;4998991;28;20147;-83
2022/06/16 08:37:10;;;;;;;4.70;1.55;;;22.00;91.30;;;;;;4969355;28;20125;-88
2022/06/16 08:39:45;;;;;;;3.67;1.60;;;22.00;87.30;;;;;;4996358;28;20046;-85
2022/06/16 08:42:46;;;;;;;3.90;1.45;;;22.10;90.50;;;;;;4994220;28;20647;-85
2022/06/16 08:46:01;;;;;;;3.67;1.60;;;22.20;90.00;;;;;;4947134;28;20035;-84
2022/06/16 08:49:09;;;;;;;3.70;1.63;;;22.40;90.10;;;;;;4891832;28;20435;-83
2022/06/16 08:58:55;;;;;;;4.63;1.60;;;22.90;86.60;;;;;;4961034;28;20173;-85
2022/06/16 09:01:58;;;;;;;4.43;1.92;;;22.80;83.60;;;;;;4956598;28;20746;-83
2022/06/16 09:04:48;;;;;;;6.35;2.00;;;22.90;83.70;;;;;;4972481;28;20046;-87
2022/06/16 09:07:35;;;;;;;3.63;1.80;;;22.90;82.40;;;;;;4975105;28;20092;-86
2022/06/16 09:13:46;;;;;;;3.60;1.85;;;22.90;82.20;;;;;;4988949;28;20495;-85
2022/06/16 09:16:58;;;;;;;5.10;1.88;;;23.00;80.80;;;;;;5021532;28;20060;-87
2022/06/16 09:20:06;;;;;;;3.13;1.80;;;23.20;81.80;;;;;;4971342;28;20054;-84
2022/06/16 09:22:54;;;;;;;3.97;2.00;;;23.40;81.20;;;;;;5067764;28;20044;-83
2022/06/16 09:26:15;;;;;;;5.37;1.80;;;23.20;79.50;;;;;;5081823;28;20051;-84
2022/06/16 09:29:05;;;;;;;3.55;1.60;;;23.30;79.40;;;;;;5102827;28;20044;-83
2022/06/16 09:31:59;;;;;;;2.85;1.70;;;23.50;81.00;;;;;;5085302;28;20039;-84
2022/06/16 09:35:20;;;;;;;3.85;1.80;;;23.60;81.20;;;;;;5083646;28;20464;-85
2022/06/16 09:38:36;;;;;;;;;;;;;;;;;;;;;
2022/06/16 09:44:41;;;;;;;2.95;1.77;;;23.90;78.50;;;;;;5102055;28;20039;-83
2022/06/16 09:47:12;;;;;;;4.40;1.90;;;23.90;78.20;;;;;;5099014;28;20113;-83
2022/06/16 09:49:56;;;;;;;3.85;2.08;;;23.90;79.90;;;;;;5087423;28;20044;-83
2022/06/16 09:52:59;;;;;;;3.70;2.00;;;24.00;78.60;;;;;;5099379;28;20456;-83
2022/06/16 09:56:25;;;;;;;4.93;1.80;;;24.10;78.80;;;;;;5097399;28;20051;-84
2022/06/16 09:59:56;;;;;;;3.78;1.92;;;24.10;77.50;;;;;;5090185;28;20056;-82
2022/06/16 10:02:24;;;;;;;4.30;2.05;;;24.10;78.50;;;;;;5109192;28;20071;-87
2022/06/16 10:04:54;;;;;;;3.33;1.83;;;24.00;79.10;;;;;;5083666;28;20608;-79
2022/06/16 10:07:57;;;;;;;52.75;4.93;;;24.00;79.00;;;;;;5083757;28;20451;-81
2022/06/16 10:11:42;;;;;;;3.53;1.75;;;24.00;76.60;;;;;;5105095;28;20100;-86
2022/06/16 10:14:17;;;;;;;53.17;3.70;;;24.00;77.90;;;;;;5039106;28;20073;-86
2022/06/16 10:17:12;;;;;;;3.33;2.20;;;23.90;79.10;;;;;;5088914;28;20032;-89
2022/06/16 10:20:11;;;;;;;4.13;2.30;;;24.00;78.80;;;;;;5093215;28;20090;-93
2022/06/16 10:23:16;;;;;;;6.18;2.40;;;23.90;75.50;;;;;;5072213;28;20108;-92
2022/06/16 10:25:54;;;;;;;5.00;2.45;;;23.70;77.20;;;;;;5103168;28;20036;-91
2022/06/16 10:28:35;;;;;;;;;;;23.50;77.60;;;;;;5096873;28;20039;-90
2022/06/16 10:34:49;;;;;;;5.80;2.45;;;23.30;77.40;;;;;;5113708;28;20099;-92
2022/06/16 10:41:06;;;;;;;4.75;3.20;;;23.40;77.20;;;;;;5115086;28;20075;-90
2022/06/16 10:48:04;;;;;;;7.55;4.60;;;23.30;77.20;;;;;;5106599;28;20044;-90
2022/06/16 10:54:37;;;;;;;3.60;2.58;;;23.10;79.80;;;;;;5110844;28;20036;-91
2022/06/16 10:58:30;;;;;;;5.80;2.88;;;23.10;79.20;;;;;;5090806;28;20028;-90
2022/06/16 11:01:24;;;;;;;4.63;2.80;;;23.10;78.40;;;;;;5094098;28;20399;-89
2022/06/16 11:04:50;;;;;;;;;;;;;;;;;;;;;
2022/06/16 11:07:54;;;;;;;5.15;2.10;;;23.10;78.90;;;;;;5105675;28;20051;-90
2022/06/16 11:10:58;;;;;;;4.38;2.30;;;23.20;77.50;;;;;;5109631;28;20050;-90
2022/06/16 11:13:37;;;;;;;8.77;2.83;;;23.20;79.30;;;;;;5087471;28;20044;-88
2022/06/16 11:19:46;;;;;;;4.63;2.35;;;23.60;78.10;;;;;;5102278;28;20047;-84
2022/06/16 11:26:17;;;;;;;7.20;2.65;;;23.80;79.80;;;;;;5116494;27;20035;-87
2022/06/16 11:29:17;;;;;;;4.15;2.60;;;23.90;77.80;;;;;;5087581;27;20091;-85
2022/06/16 11:35:32;;;;;;;11.88;2.70;;;24.00;78.90;;;;;;5106939;27;20145;-87
2022/06/16 11:38:51;;;;;;;9.32;2.60;;;24.20;80.10;;;;;;5088154;27;20490;-84
2022/06/16 11:45:19;;;;;;;4.18;2.33;;;24.60;76.40;;;;;;5127730;27;20054;-88
2022/06/16 11:51:31;;;;;;;5.82;2.28;;;24.80;75.20;;;;;;5093901;27;21481;-86
2022/06/16 11:54:44;;;;;;;4.03;2.25;;;24.90;77.60;;;;;;5094773;27;20099;-88
2022/06/16 11:57:38;;;;;;;7.00;2.72;;;25.20;76.60;;;;;;5088962;27;20047;-87
2022/06/16 12:00:21;;;;;;;4.25;2.20;;;25.30;74.10;;;;;;5084766;28;20039;-87
2022/06/16 12:03:10;;;;;;;5.32;2.28;;;25.40;73.40;;;;;;5105782;28;20385;-91
2022/06/16 12:05:55;;;;;;;51.38;5.18;;;25.50;73.80;;;;;;5112506;27;20399;-89
2022/06/16 12:08:46;;;;;;;4.72;2.40;;;25.60;74.40;;;;;;5088738;27;21784;-89
2022/06/16 12:11:46;;;;;;;38.25;4.78;;;25.70;72.00;;;;;;5105664;28;20403;-84
2022/06/16 12:14:53;;;;;;;9.45;2.60;;;25.70;75.20;;;;;;5086688;27;20373;-82
2022/06/16 12:17:45;;;;;;;4.90;2.60;;;25.60;72.60;;;;;;5080623;28;20061;-81
2022/06/16 12:20:38;;;;;;;6.78;2.92;;;25.30;72.50;;;;;;5074483;27;20176;-82
2022/06/16 12:23:20;;;;;;;6.15;2.80;;;25.10;72.10;;;;;;5121039;28;20472;-81
2022/06/16 12:26:27;;;;;;;5.25;2.67;;;24.90;72.80;;;;;;5098463;28;20555;-81
2022/06/16 12:29:49;;;;;;;5.30;2.92;;;24.80;72.70;;;;;;5102967;28;20491;-91
2022/06/16 12:32:38;;;;;;;5.00;2.45;;;24.60;74.10;;;;;;5091060;28;20061;-89
2022/06/16 12:35:55;;;;;;;4.88;2.50;;;24.70;75.10;;;;;;5092332;28;20039;-89
2022/06/16 12:41:32;;;;;;;6.35;2.45;;;25.30;73.70;;;;;;5105291;28;20051;-82
2022/06/16 12:48:25;;;;;;;3.97;2.33;;;25.50;71.00;;;;;;5081748;28;20036;-86
2022/06/16 12:51:08;;;;;;;5.20;2.50;;;25.40;72.10;;;;;;5052785;28;20037;-90
2022/06/16 12:54:10;;;;;;;5.75;2.75;;;25.30;73.70;;;;;;5081190;28;20048;-89
2022/06/16 12:57:19;;;;;;;5.43;2.72;;;25.50;71.10;;;;;;5055374;28;20416;-90
2022/06/16 13:00:15;;;;;;;4.72;3.00;;;25.80;71.80;;;;;;5060626;28;20472;-86
2022/06/16 13:03:12;;;;;;;5.53;2.58;;;26.30;69.70;;;;;;5057605;28;20408;-82
2022/06/16 13:06:06;;;;;;;5.32;2.75;;;26.30;70.10;;;;;;5056713;28;20051;-83
2022/06/16 13:08:57;;;;;;;4.78;2.35;;;25.90;69.80;;;;;;5059474;28;20055;-81
2022/06/16 13:11:49;;;;;;;7.35;2.60;;;25.70;70.30;;;;;;5078644;28;20426;-80
2022/06/16 13:14:50;;;;;;;10.05;3.30;;;25.60;72.40;;;;;;5072243;28;20388;-88
2022/06/16 13:17:45;;;;;;;6.65;2.17;;;26.00;73.20;;;;;;5047346;28;20137;-88
2022/06/16 13:20:22;;;;;;;4.32;2.28;;;26.60;70.20;;;;;;5072507;28;20051;-89
2022/06/16 13:23:08;;;;;;;6.25;2.80;;;26.90;69.80;;;;;;5067964;28;20710;-85
2022/06/16 13:25:57;;;;;;;8.20;2.88;;;27.10;68.40;;;;;;5097061;28;20165;-85
2022/06/16 13:28:41;;;;;;;5.28;2.45;;;27.60;68.10;;;;;;5102629;28;20038;-87
2022/06/16 13:35:16;;;;;;;4.75;2.42;;;27.20;66.70;;;;;;5095136;28;20040;-83
2022/06/16 13:37:49;;;;;;;5.75;2.50;;;27.10;71.30;;;;;;5094822;28;20044;-86
2022/06/16 13:43:24;;;;;;;13.60;2.78;;;27.80;66.80;;;;;;5077594;28;20660;-85
2022/06/16 13:46:29;;;;;;;5.13;2.95;;;27.90;67.00;;;;;;5109874;28;20039;-86
2022/06/16 13:56:41;;;;;;;5.47;2.15;;;27.90;65.20;;;;;;5090311;28;20048;-86
2022/06/16 13:59:27;;;;;;;4.03;2.00;;;27.70;65.70;;;;;;5105613;28;20035;-87
2022/06/16 14:02:32;;;;;;;;;;;27.40;64.50;;;;;;5106414;28;21118;-87
2022/06/16 14:05:19;;;;;;;10.38;2.60;;;26.80;66.10;;;;;;5017985;28;19924;-89
2022/06/16 14:08:33;;;;;;;8.80;2.60;;;26.30;66.30;;;;;;5026422;28;20033;-89
2022/06/16 14:11:59;;;;;;;10.60;2.80;;;25.90;66.60;;;;;;5103534;28;20504;-90
2022/06/16 14:14:28;;;;;;;7.00;2.30;;;25.80;67.70;;;;;;5104773;28;20032;-90
2022/06/16 14:17:07;;;;;;;4.15;2.70;;;25.70;66.80;;;;;;5084400;28;20469;-86
2022/06/16 14:20:13;;;;;;;7.07;3.22;;;25.60;66.30;;;;;;5093055;28;20089;-87
2022/06/16 14:23:02;;;;;;;6.38;2.60;;;25.40;67.60;;;;;;5062263;28;20527;-83
2022/06/16 14:25:41;;;;;;;4.03;2.20;;;25.30;69.10;;;;;;5091614;28;20031;-81
2022/06/16 14:28:20;;;;;;;13.75;3.03;;;25.10;69.20;;;;;;5076089;28;20820;-81
2022/06/16 14:31:17;;;;;;;9.02;2.63;;;25.00;69.60;;;;;;5088525;28;20089;-82
2022/06/16 14:34:33;;;;;;;8.20;2.60;;;25.20;71.30;;;;;;5084609;28;20119;-82
2022/06/16 14:37:50;;;;;;;5.05;2.72;;;25.70;70.50;;;;;;5103933;28;20816;-89
2022/06/16 14:41:20;;;;;;;7.43;3.05;;;26.00;68.40;;;;;;5079515;28;20427;-87
2022/06/16 14:47:34;;;;;;;4.63;2.22;;;25.40;68.80;;;;;;5078339;28;20036;-86
2022/06/16 14:50:39;;;;;;;6.07;2.70;;;25.10;70.20;;;;;;5091613;28;20071;-81
2022/06/16 14:53:15;;;;;;;6.13;2.90;;;25.00;70.70;;;;;;5085852;28;20069;-85
2022/06/16 14:56:02;;;;;;;7.63;3.72;;;25.00;70.30;;;;;;5083673;28;20066;-84
2022/06/16 14:59:02;;;;;;;6.28;2.92;;;25.10;69.50;;;;;;5086028;28;20437;-85
2022/06/16 15:01:50;;;;;;;5.65;2.70;;;25.10;70.70;;;;;;5098322;28;20056;-86
2022/06/16 15:05:19;;;;;;;7.80;2.78;;;25.10;70.90;;;;;;5084670;28;20039;-86
2022/06/16 15:07:53;;;;;;;9.30;2.58;;;25.20;70.40;;;;;;5043076;28;20076;-86
2022/06/16 15:10:41;;;;;;;19.35;3.40;;;25.10;69.80;;;;;;5051698;28;20579;-85
2022/06/16 15:13:30;;;;;;;13.85;2.88;;;25.10;73.60;;;;;;5100820;28;20028;-86
2022/06/16 15:16:07;;;;;;;7.05;2.63;;;25.20;71.40;;;;;;5085490;28;20136;-86
2022/06/16 15:18:50;;;;;;;7.22;2.70;;;25.50;69.40;;;;;;5086943;28;20496;-84
2022/06/16 15:21:16;;;;;;;5.10;2.38;;;26.20;69.60;;;;;;5083747;28;20430;-87
2022/06/16 15:23:51;;;;;;;4.32;2.67;;;26.90;69.80;;;;;;5081522;28;20457;-85
2022/06/16 15:26:27;;;;;;;3.67;2.42;;;27.40;67.90;;;;;;5087402;28;20048;-86
2022/06/16 15:29:13;;;;;;;3.92;2.70;;;27.50;66.80;;;;;;5106899;28;20032;-87
2022/06/16 15:32:02;;;;;;;4.78;2.50;;;27.70;66.10;;;;;;5084426;28;20044;-86
2022/06/16 15:37:54;;;;;;;2.83;2.10;;;27.20;65.80;;;;;;5098294;28;20483;-88
2022/06/16 15:40:47;;;;;;;5.05;2.97;;;27.30;66.90;;;;;;5090817;28;20051;-87
2022/06/16 15:43:46;;;;;;;3.97;2.20;;;27.90;64.50;;;;;;5075406;28;20395;-86
2022/06/16 15:46:17;;;;;;;6.20;2.00;;;28.30;64.60;;;;;;5084558;28;20036;-85
2022/06/16 15:48:55;;;;;;;4.47;2.60;;;28.70;64.30;;;;;;5086106;28;20526;-85
2022/06/16 15:51:35;;;;;;;4.15;2.50;;;29.30;63.80;;;;;;5099345;28;20474;-84
2022/06/16 15:54:07;;;;;;;3.88;2.95;;;29.30;63.50;;;;;;5080206;28;20547;-83
2022/06/16 15:57:00;;;;;;;7.70;3.65;;;28.90;63.80;;;;;;5081425;28;20068;-85
2022/06/16 16:00:16;;;;;;;4.18;3.00;;;28.60;63.90;;;;;;5093148;28;20427;-86
2022/06/16 16:02:46;;;;;;;5.90;3.00;;;28.30;64.20;;;;;;5083595;28;20559;-86
2022/06/16 16:05:15;;;;;;;6.72;3.03;;;28.20;65.20;;;;;;5100881;28;20027;-84
2022/06/16 16:07:48;;;;;;;4.88;2.90;;;28.10;65.70;;;;;;5101914;28;20126;-84
2022/06/16 16:10:33;;;;;;;3.25;2.80;;;27.90;65.80;;;;;;5101800;28;20043;-85
2022/06/16 16:13:32;;;;;;;6.13;2.50;;;27.40;65.50;;;;;;5081475;28;20468;-85
2022/06/16 16:16:14;;;;;;;4.95;2.30;;;26.90;65.30;;;;;;5029187;28;20052;-87
2022/06/16 16:19:00;;;;;;;5.22;2.90;;;26.40;66.90;;;;;;5044758;28;20040;-86
2022/06/16 16:21:59;;;;;;;4.70;2.60;;;26.20;67.00;;;;;;5071057;28;20052;-87
2022/06/16 16:25:06;;;;;;;4.45;2.33;;;26.00;67.40;;;;;;5061107;28;20538;-87
2022/06/16 16:27:35;;;;;;;3.97;2.17;;;25.90;68.00;;;;;;5069666;28;20524;-85
2022/06/16 16:30:16;;;;;;;2.85;2.45;;;25.90;68.20;;;;;;5043482;28;20078;-88
2022/06/16 16:32:50;;;;;;;7.93;2.65;;;25.90;67.90;;;;;;5032948;28;20534;-87
2022/06/16 16:35:40;;;;;;;4.03;2.30;;;25.80;67.90;;;;;;5071601;28;20475;-88
2022/06/16 16:38:38;;;;;;;5.03;2.00;;;25.80;68.90;;;;;;5081861;28;20344;-89
2022/06/16 16:44:55;;;;;;;3.38;2.30;;;25.60;68.40;;;;;;5101966;28;20516;-85
2022/06/16 16:50:43;;;;;;;5.78;2.60;;;25.50;69.50;;;;;;5105528;28;20047;-84
2022/06/16 17:04:39;;;;;;;;;;;;;;;;;;;;;
2022/06/16 17:11:50;;;;;;;5.57;2.53;;;25.20;73.10;;;;;;5038903;28;20044;-84
2022/06/16 17:13:43;;;;;;;3.33;2.50;;;25.10;71.60;;;;;;5038554;28;20071;-85
2022/06/16 17:19:00;;;;;;;3.88;2.90;;;25.20;71.70;;;;;;5017606;28;20072;-84
2022/06/16 17:22:01;;;;;;;5.60;2.65;;;25.10;72.40;;;;;;5017619;28;20473;-86
2022/06/16 17:24:50;;;;;;;4.57;2.58;;;25.00;72.20;;;;;;5077585;28;20043;-85
2022/06/16 17:27:21;;;;;;;7.80;3.25;;;25.00;73.00;;;;;;5076761;28;20504;-85
2022/06/16 17:29:55;;;;;;;6.93;3.03;;;24.80;71.50;;;;;;5078387;28;20044;-85
2022/06/16 17:32:39;;;;;;;6.43;2.90;;;24.80;72.00;;;;;;5076711;28;20561;-85
2022/06/16 17:42:24;;;;;;;7.93;3.25;;;25.00;73.30;;;;;;5111986;28;20101;-85
2022/06/16 18:04:45;;;;;;;5.32;3.10;;;24.30;75.00;;;;;;5108748;28;20038;-85
2022/06/16 18:07:46;;;;;;;5.03;2.90;;;24.30;74.90;;;;;;5112026;28;20427;-85
2022/06/16 18:10:23;;;;;;;3.97;3.05;;;24.30;75.40;;;;;;5101081;28;20055;-85
2022/06/16 18:12:52;;;;;;;4.85;3.08;;;24.20;74.90;;;;;;5103535;28;20119;-86
2022/06/16 18:19:05;;;;;;;5.00;2.80;;;24.20;76.00;;;;;;5108433;28;20089;-85
2022/06/16 18:25:25;;;;;;;9.23;3.10;;;24.10;75.00;;;;;;5093433;28;20052;-85
2022/06/16 18:35:39;;;;;;;5.75;2.80;;;23.90;75.00;;;;;;5053142;28;20405;-88
2022/06/16 18:38:34;;;;;;;7.55;3.13;;;23.80;75.90;;;;;;5039719;28;20044;-89
2022/06/16 18:44:04;;;;;;;4.78;2.65;;;23.60;75.00;;;;;;5032501;28;20060;-90
2022/06/16 18:47:22;;;;;;;5.75;2.92;;;23.60;75.20;;;;;;5060579;28;20045;-89
2022/06/16 18:49:44;;;;;;;8.32;3.22;;;23.50;75.40;;;;;;5062041;28;20471;-88
2022/06/16 18:55:20;;;;;;;6.65;3.13;;;23.30;75.50;;;;;;5055690;28;20043;-89
2022/06/16 18:58:18;;;;;;;5.32;2.50;;;23.10;75.60;;;;;;5101043;28;20131;-88
2022/06/16 19:01:08;;;;;;;3.42;2.55;;;23.10;76.30;;;;;;5085067;28;20032;-89
2022/06/16 19:03:39;;;;;;;5.60;2.63;;;23.00;76.60;;;;;;5085781;28;20047;-89
2022/06/16 19:06:31;;;;;;;3.78;2.65;;;23.00;76.60;;;;;;5085458;28;20468;-88
2022/06/16 19:09:29;;;;;;;4.38;2.72;;;23.00;76.90;;;;;;5101360;28;20068;-89
2022/06/16 19:15:17;;;;;;;4.45;2.60;;;22.90;76.90;;;;;;5100869;28;20518;-89
2022/06/16 19:17:51;;;;;;;5.60;2.83;;;22.80;77.40;;;;;;5105590;28;20047;-87